createdAt,value
2023-01-08T07:11:38.214Z,34.42
2023-01-08T07:16:40.334Z,38.17
2023-01-08T07:21:42.415Z,38.25
2023-01-08T07:26:44.517Z,37.45
2023-01-08T07:31:46.649Z,35.00
2023-01-08T07:36:48.803Z,37.92
2023-01-08T07:41:51.124Z,37.33
2023-01-08T07:46:53.320Z,35.47
2023-01-08T07:51:55.483Z,42.13
2023-01-08T07:56:57.586Z,41.63
2023-01-08T08:01:59.736Z,35.55
2023-01-08T08:07:01.933Z,40.70
2023-01-08T08:12:04.327Z,40.63
2023-01-08T08:17:06.472Z,38.10
2023-01-08T08:22:08.503Z,36.00
2023-01-08T08:27:10.534Z,38.10
2023-01-08T08:32:12.645Z,37.30
2023-01-08T08:37:14.697Z,33.60
2023-01-08T08:42:16.768Z,36.10
2023-01-08T08:47:18.849Z,37.60
2023-01-08T08:52:20.931Z,41.65
2023-01-08T08:57:26.951Z,32.40
2023-01-08T09:02:29.267Z,36.80
2023-01-08T09:07:31.491Z,37.88
2023-01-08T09:12:33.607Z,37.27
2023-01-08T09:17:36.911Z,34.97
2023-01-08T09:22:38.997Z,34.17
2023-01-08T09:27:41.081Z,32.00
2023-01-08T09:32:43.163Z,33.33
2023-01-08T09:37:45.257Z,31.62
2023-01-08T09:42:55.119Z,34.38
2023-01-08T09:48:03.806Z,31.27
2023-01-08T09:53:10.400Z,33.55
2023-01-08T09:58:29.964Z,27.52
2023-01-08T10:03:41.482Z,31.20
2023-01-08T10:13:57.175Z,29.98
2023-01-08T10:19:00.097Z,29.20
2023-01-08T10:24:02.236Z,33.67
2023-01-08T10:29:10.191Z,29.83
2023-01-08T10:34:22.168Z,27.87
2023-01-08T10:39:28.529Z,28.27
2023-01-08T10:44:32.744Z,30.90
2023-01-08T10:49:42.454Z,26.90
2023-01-08T10:54:44.587Z,27.73
2023-01-08T10:59:46.707Z,26.92
2023-01-08T11:04:52.056Z,29.42
2023-01-08T11:09:55.288Z,30.33
2023-01-08T11:14:57.600Z,28.90
2023-01-08T11:20:30.686Z,25.83
2023-01-08T11:25:35.254Z,28.08
2023-01-08T11:30:39.345Z,24.90
2023-01-08T11:35:48.688Z,31.83
2023-01-08T11:40:52.574Z,25.40
2023-01-08T11:46:19.432Z,30.20
2023-01-08T11:51:40.558Z,30.25
2023-01-08T11:57:04.996Z,28.92
2023-01-08T12:02:21.056Z,26.53
2023-01-08T12:07:33.293Z,26.57
2023-01-08T12:12:38.281Z,28.80
2023-01-08T12:17:48.537Z,32.35
2023-01-08T12:23:11.617Z,32.67
2023-01-08T12:28:25.836Z,33.70
2023-01-08T12:33:44.027Z,32.97
2023-01-08T12:38:57.668Z,31.27
2023-01-08T12:44:03.226Z,32.85
2023-01-08T12:49:08.036Z,28.30
2023-01-08T12:54:31.903Z,32.37
2023-01-08T12:59:59.333Z,31.30
2023-01-08T13:05:20.461Z,30.23
2023-01-08T13:10:36.315Z,30.00
2023-01-08T13:15:38.756Z,30.00
2023-01-08T13:20:41.068Z,33.60
2023-01-08T13:25:56.143Z,33.28
2023-01-08T13:31:28.746Z,31.23
2023-01-08T13:36:32.040Z,36.80
2023-01-08T13:41:37.388Z,35.83
2023-01-08T13:46:41.036Z,32.80
2023-01-08T13:51:45.711Z,34.03
2023-01-08T13:56:54.061Z,35.17
2023-01-08T14:01:57.170Z,34.85
2023-01-08T14:07:25.878Z,37.27
2023-01-08T14:12:28.150Z,38.55
2023-01-08T14:17:32.528Z,38.03
2023-01-08T14:22:36.019Z,39.93
2023-01-08T14:27:38.078Z,40.65
2023-01-08T14:32:43.766Z,40.47
2023-01-08T14:37:45.963Z,41.47
2023-01-08T14:42:53.303Z,44.40
2023-01-08T14:48:08.053Z,47.13
2023-01-08T14:53:20.273Z,44.72
2023-01-08T14:58:25.539Z,49.03
2023-01-08T15:03:39.996Z,47.22
2023-01-08T15:08:44.402Z,45.00
2023-01-08T15:13:48.673Z,47.27
2023-01-08T15:19:17.828Z,45.97
2023-01-08T15:24:29.464Z,45.78
2023-01-08T15:29:37.026Z,45.97
2023-01-08T15:34:39.172Z,46.80
2023-01-08T15:39:42.074Z,46.78
2023-01-08T15:44:44.165Z,47.00
2023-01-08T15:49:46.223Z,50.17
2023-01-08T15:54:48.847Z,50.70
2023-01-08T15:59:51.574Z,48.67
2023-01-08T16:04:56.152Z,48.03
2023-01-08T16:09:58.387Z,47.62
2023-01-08T16:15:00.524Z,49.05
2023-01-08T16:20:04.203Z,47.93
2023-01-08T16:25:07.363Z,48.00
2023-01-08T16:30:14.630Z,46.05
2023-01-08T16:35:16.832Z,47.30
2023-01-08T16:40:19.286Z,43.70
2023-01-08T16:45:21.384Z,49.28
2023-01-08T16:50:23.420Z,49.28
2023-01-08T16:55:25.717Z,47.73
2023-01-08T17:00:27.835Z,48.47
2023-01-08T17:05:30.013Z,46.95
2023-01-08T17:10:32.364Z,47.23
2023-01-08T17:15:34.506Z,43.77
2023-01-08T17:20:36.835Z,48.67
2023-01-08T17:25:40.936Z,45.92
2023-01-08T17:30:43.026Z,43.90
2023-01-08T17:35:45.242Z,45.22
2023-01-08T17:40:47.314Z,45.25
2023-01-08T17:45:49.409Z,49.00
2023-01-08T17:50:51.545Z,46.65
2023-01-08T17:55:54.310Z,46.03
2023-01-08T18:00:56.465Z,44.93
2023-01-08T18:05:58.584Z,45.90
2023-01-08T18:11:02.722Z,42.65
2023-01-08T18:16:07.923Z,43.10
2023-01-08T18:21:10.176Z,45.53
2023-01-08T18:26:12.671Z,43.67
2023-01-08T18:31:15.771Z,44.05
2023-01-08T18:36:18.853Z,42.77
2023-01-08T18:41:39.486Z,43.05
2023-01-08T18:46:41.686Z,46.92
2023-01-08T18:51:43.891Z,44.07
2023-01-08T18:56:47.164Z,44.00
2023-01-08T19:01:49.438Z,45.25
2023-01-08T19:06:51.604Z,42.25
2023-01-08T19:11:53.753Z,44.00
2023-01-08T19:16:56.533Z,42.20
2023-01-08T19:21:58.676Z,41.85
2023-01-08T19:27:00.788Z,44.00
2023-01-08T19:32:02.853Z,43.33
2023-01-08T19:37:05.112Z,43.92
2023-01-08T19:42:25.768Z,46.33
2023-01-08T19:47:28.115Z,44.03
2023-01-08T19:52:30.237Z,42.55
2023-01-08T19:57:32.375Z,46.03
2023-01-08T20:02:34.530Z,46.60
2023-01-08T20:07:36.869Z,45.47
2023-01-08T20:12:39.673Z,47.72
2023-01-08T20:17:42.639Z,44.20
2023-01-08T20:22:44.893Z,45.70
2023-01-08T20:27:46.985Z,47.55
2023-01-08T20:37:56.010Z,35.13
2023-01-08T20:42:58.069Z,29.77
2023-01-08T20:48:00.140Z,21.48
2023-01-08T20:53:02.237Z,18.93
2023-01-08T20:58:04.436Z,18.40
2023-01-08T21:03:06.620Z,20.30
2023-01-08T21:08:09.014Z,18.03
2023-01-08T21:13:11.539Z,17.27
2023-01-08T21:18:13.683Z,21.05
2023-01-08T21:23:15.763Z,19.67
2023-01-08T21:28:38.810Z,18.67
2023-01-08T21:33:41.478Z,20.65
2023-01-08T21:38:44.568Z,20.98
